createdAt,value
2023-04-18T00:00:59.156Z,42.98
2023-04-18T00:01:59.249Z,42.99
2023-04-18T00:03:00.900Z,42.99
2023-04-18T00:03:59.499Z,42.98
2023-04-18T00:04:59.394Z,42.97
2023-04-18T00:05:59.348Z,42.99
2023-04-18T00:06:59.299Z,43.00
2023-04-18T00:07:59.313Z,42.98
2023-04-18T00:08:59.374Z,42.99
2023-04-18T00:09:59.346Z,42.98
2023-04-18T00:10:59.358Z,43.01
2023-04-18T00:11:59.362Z,42.96
2023-04-18T00:12:59.378Z,43.00
2023-04-18T00:13:59.399Z,42.94
2023-04-18T00:14:59.401Z,42.95
2023-04-18T00:15:59.420Z,42.99
2023-04-18T00:16:59.477Z,42.96
2023-04-18T00:17:59.498Z,42.97
2023-04-18T00:18:59.461Z,42.93
2023-04-18T00:19:59.473Z,42.98
2023-04-18T00:20:59.486Z,42.96
2023-04-18T00:21:59.494Z,42.94
2023-04-18T00:22:59.504Z,42.94
2023-04-18T00:23:59.600Z,42.94
2023-04-18T00:24:59.726Z,42.93
2023-04-18T00:25:59.763Z,42.91
2023-04-18T00:26:59.831Z,42.91
2023-04-18T00:28:00.887Z,42.92
2023-04-18T00:29:00.002Z,42.93
2023-04-18T00:30:00.140Z,42.93
2023-04-18T00:31:00.170Z,42.90
2023-04-18T00:32:00.241Z,42.92
2023-04-18T00:33:00.419Z,42.92
2023-04-18T00:34:00.398Z,42.90
2023-04-18T00:35:00.903Z,42.91
2023-04-18T00:36:00.572Z,42.90
2023-04-18T00:37:00.639Z,42.91
2023-04-18T00:38:00.707Z,42.90
2023-04-18T00:39:00.808Z,42.88
2023-04-18T00:40:00.886Z,42.90
2023-04-18T00:41:00.957Z,42.88
2023-04-18T00:42:01.034Z,42.86
2023-04-18T00:43:01.119Z,42.87
2023-04-18T00:44:01.200Z,42.86
2023-04-18T00:45:01.285Z,42.85
2023-04-18T00:46:01.425Z,42.85
2023-04-18T00:47:01.440Z,42.84
2023-04-18T00:48:01.594Z,42.87
2023-04-18T00:49:01.908Z,42.85
2023-04-18T00:50:01.712Z,42.85
2023-04-18T00:51:01.756Z,42.85
2023-04-18T00:52:01.852Z,42.82
2023-04-18T00:53:01.918Z,42.84
2023-04-18T00:54:02.066Z,42.86
2023-04-18T00:55:02.093Z,42.85
2023-04-18T00:56:02.131Z,42.86
2023-04-18T00:57:02.280Z,42.86
2023-04-18T00:58:02.284Z,42.85
2023-04-18T00:59:02.338Z,42.83
2023-04-18T01:00:02.504Z,42.84
2023-04-18T01:01:02.472Z,42.83
2023-04-18T01:02:02.640Z,42.81
2023-04-18T01:03:02.920Z,42.83
2023-04-18T01:04:02.761Z,42.82
2023-04-18T01:05:02.744Z,42.83
2023-04-18T01:06:02.811Z,42.82
2023-04-18T01:07:02.873Z,42.82
2023-04-18T01:08:02.932Z,42.80
2023-04-18T01:09:03.087Z,42.82
2023-04-18T01:10:03.103Z,42.79
2023-04-18T01:11:03.184Z,42.80
2023-04-18T01:12:03.247Z,42.77
2023-04-18T01:13:03.321Z,42.78
2023-04-18T01:14:04.414Z,42.76
2023-04-18T01:15:03.493Z,42.77
2023-04-18T01:16:03.622Z,42.80
2023-04-18T01:17:03.628Z,42.78
2023-04-18T01:18:03.714Z,42.79
2023-04-18T01:19:03.769Z,42.80
2023-04-18T01:20:03.854Z,42.78
2023-04-18T01:21:03.918Z,42.79
2023-04-18T01:22:04.006Z,42.79
2023-04-18T01:23:04.080Z,42.82
2023-04-18T01:24:04.184Z,42.78
2023-04-18T01:25:04.245Z,42.80
2023-04-18T01:26:04.398Z,42.79
2023-04-18T01:27:05.399Z,42.78
2023-04-18T01:28:04.528Z,42.74
2023-04-18T01:29:04.589Z,42.77
2023-04-18T01:30:04.707Z,42.75
2023-04-18T01:31:04.802Z,42.78
2023-04-18T01:32:04.852Z,42.76
2023-04-18T01:33:04.935Z,42.74
2023-04-18T01:34:05.016Z,42.75
2023-04-18T01:35:05.415Z,42.74
2023-04-18T01:36:05.184Z,42.77
2023-04-18T01:37:05.258Z,42.73
2023-04-18T01:38:05.348Z,42.70
2023-04-18T01:39:05.466Z,42.74
2023-04-18T01:40:05.517Z,42.71
2023-04-18T01:41:05.587Z,42.72
2023-04-18T01:42:05.675Z,42.67
2023-04-18T01:43:05.753Z,42.71
2023-04-18T01:44:05.840Z,42.68
2023-04-18T01:45:05.929Z,42.68
2023-04-18T01:46:06.018Z,42.67
2023-04-18T01:47:06.090Z,42.67
2023-04-18T01:48:06.171Z,42.66
2023-04-18T01:49:06.247Z,42.66
2023-04-18T01:50:06.334Z,42.64
2023-04-18T01:51:06.420Z,42.66
2023-04-18T01:52:06.491Z,42.61
2023-04-18T01:53:06.577Z,42.63
2023-04-18T01:54:06.666Z,42.62
2023-04-18T01:55:06.932Z,42.62
2023-04-18T01:56:06.808Z,42.61
2023-04-18T01:57:06.929Z,42.60
2023-04-18T01:58:06.968Z,42.59
2023-04-18T01:59:07.045Z,42.58
2023-04-18T02:00:07.151Z,42.57
2023-04-18T02:01:07.257Z,42.55
2023-04-18T02:02:07.422Z,42.57
2023-04-18T02:03:07.556Z,42.55
2023-04-18T02:04:07.441Z,42.57
2023-04-18T02:05:07.507Z,42.54
2023-04-18T02:06:07.606Z,42.54
2023-04-18T02:07:08.412Z,42.53
2023-04-18T02:08:07.725Z,42.52
2023-04-18T02:09:07.792Z,42.52
2023-04-18T02:10:07.890Z,42.51
2023-04-18T02:11:07.954Z,42.51
2023-04-18T02:12:08.045Z,42.51
2023-04-18T02:13:08.101Z,42.51
2023-04-18T02:14:08.179Z,42.48
2023-04-18T02:15:08.433Z,42.46
2023-04-18T02:16:08.436Z,42.49
2023-04-18T02:17:08.408Z,42.48
2023-04-18T02:18:08.526Z,42.47
2023-04-18T02:19:08.586Z,42.48
2023-04-18T02:20:08.639Z,42.47
2023-04-18T02:21:08.696Z,42.47
2023-04-18T02:22:08.787Z,42.45
2023-04-18T02:23:08.906Z,42.47
2023-04-18T02:24:08.931Z,42.46
2023-04-18T02:25:08.998Z,42.45
2023-04-18T02:26:09.079Z,42.43
2023-04-18T02:27:09.155Z,42.46
2023-04-18T02:28:09.235Z,42.44
2023-04-18T02:29:09.306Z,42.43
2023-04-18T02:30:09.391Z,42.44
2023-04-18T02:31:09.933Z,42.43
2023-04-18T02:32:09.631Z,42.42
2023-04-18T02:33:09.602Z,42.43
2023-04-18T02:34:09.674Z,42.41
2023-04-18T02:35:09.751Z,42.41
2023-04-18T02:36:09.801Z,42.41
2023-04-18T02:37:09.879Z,42.41
2023-04-18T02:38:09.951Z,42.40
2023-04-18T02:39:10.025Z,42.38
2023-04-18T02:40:10.159Z,42.39
2023-04-18T02:41:10.174Z,42.38
2023-04-18T02:42:10.235Z,42.37
2023-04-18T02:43:10.315Z,42.39
2023-04-18T02:44:10.382Z,42.37
2023-04-18T02:45:10.456Z,42.36
2023-04-18T02:46:10.557Z,42.37
2023-04-18T02:47:10.604Z,42.35
2023-04-18T02:48:10.698Z,42.37
2023-04-18T02:49:10.818Z,42.36
2023-04-18T02:50:10.827Z,42.36
2023-04-18T02:51:10.884Z,42.36
2023-04-18T02:52:10.957Z,42.33
2023-04-18T02:53:11.029Z,42.35
2023-04-18T02:54:11.161Z,42.36
2023-04-18T02:55:11.174Z,42.34
2023-04-18T02:56:11.246Z,42.33
2023-04-18T02:57:11.316Z,42.32
2023-04-18T02:58:11.397Z,42.31
2023-04-18T02:59:12.436Z,42.31
2023-04-18T03:00:11.975Z,42.31
2023-04-18T03:01:11.667Z,42.32
2023-04-18T03:02:11.644Z,42.29
2023-04-18T03:03:11.748Z,42.30
2023-04-18T03:04:12.164Z,42.31
2023-04-18T03:05:11.945Z,42.29
2023-04-18T03:06:11.906Z,42.26
2023-04-18T03:07:12.065Z,42.25
2023-04-18T03:08:12.048Z,42.27
2023-04-18T03:09:12.104Z,42.28
2023-04-18T03:10:12.189Z,42.26
2023-04-18T03:11:12.252Z,42.26
2023-04-18T03:12:12.329Z,42.26
2023-04-18T03:13:12.388Z,42.26
2023-04-18T03:14:12.654Z,42.26
2023-04-18T03:15:12.522Z,42.25
2023-04-18T03:16:12.666Z,42.26
2023-04-18T03:17:12.638Z,42.22
2023-04-18T03:18:12.746Z,42.22
2023-04-18T03:19:12.797Z,42.24
2023-04-18T03:20:12.872Z,42.21
2023-04-18T03:21:12.901Z,42.19
2023-04-18T03:22:12.972Z,42.22
2023-04-18T03:23:13.050Z,42.21
2023-04-18T03:24:13.489Z,42.22
2023-04-18T03:25:13.171Z,42.20
2023-04-18T03:26:13.247Z,42.20
2023-04-18T03:27:13.290Z,42.22
2023-04-18T03:28:13.356Z,42.21
2023-04-18T03:29:13.457Z,42.21
2023-04-18T03:30:13.483Z,42.20
2023-04-18T03:31:13.590Z,42.18
2023-04-18T03:32:13.612Z,42.17
2023-04-18T03:33:13.685Z,42.21
2023-04-18T03:34:13.935Z,42.19
2023-04-18T03:35:13.841Z,42.19
2023-04-18T03:36:14.443Z,42.18
2023-04-18T03:37:13.963Z,42.17
2023-04-18T03:38:14.003Z,42.19
2023-04-18T03:39:14.077Z,42.13
2023-04-18T03:40:14.151Z,42.16
2023-04-18T03:41:14.400Z,42.17
2023-04-18T03:42:14.277Z,42.15
2023-04-18T03:43:14.344Z,42.15
2023-04-18T03:44:14.742Z,42.15
2023-04-18T03:45:14.478Z,42.15
2023-04-18T03:46:14.597Z,42.14
2023-04-18T03:47:14.637Z,42.13
2023-04-18T03:48:14.713Z,42.14
2023-04-18T03:49:14.776Z,42.13
2023-04-18T03:50:14.843Z,42.13
2023-04-18T03:51:14.976Z,42.15
2023-04-18T03:52:14.969Z,42.14
2023-04-18T03:53:15.059Z,42.14
2023-04-18T03:54:15.317Z,42.15
2023-04-18T03:55:15.178Z,42.12
2023-04-18T03:56:15.257Z,42.11
2023-04-18T03:57:15.323Z,42.09
2023-04-18T03:58:15.480Z,42.09
2023-04-18T03:59:15.601Z,42.09
2023-04-18T04:00:15.521Z,42.10
2023-04-18T04:01:15.657Z,42.08
2023-04-18T04:02:15.711Z,42.09
2023-04-18T04:03:15.769Z,42.10
2023-04-18T04:04:16.739Z,42.08
2023-04-18T04:05:15.931Z,42.08
2023-04-18T04:06:15.930Z,42.06
2023-04-18T04:07:16.004Z,42.07
2023-04-18T04:08:16.103Z,42.08
2023-04-18T04:09:16.123Z,42.05
2023-04-18T04:10:16.193Z,42.05
2023-04-18T04:11:16.260Z,42.08
2023-04-18T04:12:16.318Z,42.05
2023-04-18T04:13:16.393Z,42.05
2023-04-18T04:14:16.513Z,42.04
2023-04-18T04:15:16.539Z,42.03
2023-04-18T04:16:16.587Z,42.03
2023-04-18T04:17:16.651Z,42.05
2023-04-18T04:18:16.708Z,42.02
2023-04-18T04:19:16.769Z,42.04
2023-04-18T04:20:16.840Z,42.03
2023-04-18T04:21:17.597Z,42.01
2023-04-18T04:22:16.956Z,42.02
2023-04-18T04:23:17.083Z,42.00
2023-04-18T04:24:17.076Z,42.02
2023-04-18T04:25:17.136Z,42.02
2023-04-18T04:26:17.471Z,42.03
2023-04-18T04:27:17.260Z,42.00
2023-04-18T04:28:17.318Z,42.01
2023-04-18T04:29:17.374Z,42.03
2023-04-18T04:30:17.441Z,41.97
2023-04-18T04:31:17.532Z,41.99
2023-04-18T04:32:17.565Z,42.00
2023-04-18T04:33:17.644Z,41.97
2023-04-18T04:34:17.693Z,41.99
2023-04-18T04:35:17.758Z,41.98
2023-04-18T04:36:19.041Z,41.99
2023-04-18T04:37:17.862Z,41.99
2023-04-18T04:38:17.926Z,41.99
2023-04-18T04:39:17.989Z,41.95
2023-04-18T04:40:18.059Z,41.95
2023-04-18T04:41:18.133Z,41.98
2023-04-18T04:42:18.181Z,41.95
2023-04-18T04:43:18.238Z,41.97
2023-04-18T04:44:18.362Z,41.95
2023-04-18T04:45:18.385Z,41.97
2023-04-18T04:46:18.534Z,41.94
2023-04-18T04:47:18.498Z,41.94
2023-04-18T04:48:18.566Z,41.95
2023-04-18T04:49:18.632Z,41.93
2023-04-18T04:50:18.715Z,41.92
2023-04-18T04:51:18.766Z,41.92
2023-04-18T04:52:18.829Z,41.90
2023-04-18T04:53:18.889Z,41.91
2023-04-18T04:54:18.952Z,41.91
2023-04-18T04:55:19.084Z,41.91
2023-04-18T04:56:19.082Z,41.91
2023-04-18T04:57:19.154Z,41.90
2023-04-18T04:58:19.235Z,41.87
2023-04-18T04:59:19.284Z,41.87
2023-04-18T05:00:19.344Z,41.88
2023-04-18T05:01:19.483Z,41.88
2023-04-18T05:02:19.537Z,41.89
2023-04-18T05:03:19.695Z,41.87
2023-04-18T05:04:20.165Z,41.90
2023-04-18T05:05:19.657Z,41.88
2023-04-18T05:06:19.750Z,41.89
2023-04-18T05:07:19.789Z,41.87
2023-04-18T05:08:19.850Z,41.90
2023-04-18T05:09:19.920Z,41.87
2023-04-18T05:10:19.967Z,41.87
2023-04-18T05:11:20.049Z,41.85
2023-04-18T05:12:20.098Z,41.87
2023-04-18T05:13:20.174Z,41.87
2023-04-18T05:14:20.226Z,41.85
2023-04-18T05:15:20.284Z,41.81
2023-04-18T05:16:20.356Z,41.82
2023-04-18T05:17:20.394Z,41.83
2023-04-18T05:18:20.457Z,41.83
2023-04-18T05:19:20.519Z,41.84
2023-04-18T05:20:20.577Z,41.81
2023-04-18T05:21:20.631Z,41.82
2023-04-18T05:22:20.680Z,41.87
2023-04-18T05:23:20.766Z,41.97
2023-04-18T05:24:20.814Z,42.07
2023-04-18T05:25:20.867Z,42.38
2023-04-18T05:26:20.944Z,42.62
2023-04-18T05:27:20.971Z,42.73
2023-04-18T05:28:21.000Z,43.17
2023-04-18T05:29:21.033Z,43.13
2023-04-18T05:30:21.103Z,43.16
2023-04-18T05:31:22.031Z,43.37
2023-04-18T05:32:21.171Z,43.36
2023-04-18T05:33:21.133Z,43.41
2023-04-18T05:34:21.150Z,43.61
2023-04-18T05:35:21.188Z,43.80
2023-04-18T05:36:21.190Z,43.97
2023-04-18T05:37:21.206Z,44.08
2023-04-18T05:38:21.220Z,44.34
2023-04-18T05:39:21.220Z,44.54
2023-04-18T05:40:21.249Z,44.62
2023-04-18T05:41:21.248Z,44.73
2023-04-18T05:42:21.273Z,44.87
2023-04-18T05:43:21.274Z,44.96
2023-04-18T05:44:21.567Z,45.07
2023-04-18T05:45:21.307Z,45.27
2023-04-18T05:46:21.360Z,45.36
2023-04-18T05:47:21.370Z,45.54
2023-04-18T05:48:21.364Z,45.68
2023-04-18T05:49:21.368Z,45.94
2023-04-18T05:50:21.499Z,46.05
2023-04-18T05:51:21.476Z,46.14
2023-04-18T05:52:21.521Z,46.28
2023-04-18T05:53:22.498Z,46.39
2023-04-18T05:54:21.653Z,46.36
2023-04-18T05:55:21.772Z,46.52
2023-04-18T05:56:21.778Z,46.75
2023-04-18T05:57:21.847Z,46.81
2023-04-18T05:58:21.933Z,46.88
2023-04-18T05:59:21.964Z,47.06
2023-04-18T06:00:22.048Z,47.08
2023-04-18T06:01:22.091Z,47.23
2023-04-18T06:02:22.273Z,47.47
2023-04-18T06:03:22.435Z,47.58
2023-04-18T06:04:22.395Z,47.84
2023-04-18T06:05:22.817Z,47.97
2023-04-18T06:06:22.403Z,48.17
2023-04-18T06:07:22.523Z,48.32
2023-04-18T06:08:22.524Z,48.36
2023-04-18T06:09:22.584Z,48.44
2023-04-18T06:10:22.649Z,48.70
2023-04-18T06:11:22.728Z,48.73
2023-04-18T06:12:22.750Z,48.89
2023-04-18T06:13:22.778Z,49.21
2023-04-18T06:14:23.509Z,49.22
2023-04-18T06:15:22.868Z,49.33
2023-04-18T06:16:22.924Z,49.43
2023-04-18T06:17:23.010Z,49.66
2023-04-18T06:18:22.991Z,49.79
2023-04-18T06:19:23.013Z,49.80
2023-04-18T06:20:23.049Z,49.72
2023-04-18T06:21:24.008Z,49.64
2023-04-18T06:22:23.120Z,49.53
2023-04-18T06:23:23.162Z,49.52
2023-04-18T06:24:23.192Z,49.46
2023-04-18T06:25:23.231Z,49.47
2023-04-18T06:26:23.275Z,49.41
2023-04-18T06:27:31.044Z,49.44
2023-04-18T06:28:24.314Z,49.37
2023-04-18T06:29:23.316Z,49.35
2023-04-18T06:30:23.353Z,49.37
2023-04-18T06:31:23.353Z,49.37
2023-04-18T06:32:25.498Z,49.32
2023-04-18T06:33:23.941Z,49.37
2023-04-18T06:34:23.298Z,49.38
2023-04-18T06:35:24.138Z,49.39
2023-04-18T06:36:23.507Z,49.39
2023-04-18T06:37:23.589Z,49.31
2023-04-18T06:38:24.017Z,49.33
2023-04-18T06:39:23.722Z,49.30
2023-04-18T06:40:23.728Z,49.28
2023-04-18T06:41:23.789Z,49.30
2023-04-18T06:42:23.866Z,49.25
2023-04-18T06:43:23.909Z,49.25
2023-04-18T06:44:23.973Z,49.23
2023-04-18T06:45:24.043Z,49.19
2023-04-18T06:46:24.153Z,49.16
2023-04-18T06:47:25.162Z,49.15
2023-04-18T06:48:24.093Z,49.14
2023-04-18T06:49:26.415Z,49.10
2023-04-18T06:50:24.330Z,49.07
2023-04-18T06:51:24.385Z,49.07
2023-04-18T06:52:24.438Z,49.07
2023-04-18T06:53:24.512Z,49.08
2023-04-18T06:54:24.596Z,48.97
2023-04-18T06:55:24.742Z,48.88
2023-04-18T06:56:24.705Z,48.79
2023-04-18T06:57:24.769Z,48.90
2023-04-18T06:58:24.836Z,48.81
2023-04-18T06:59:24.911Z,48.73
2023-04-18T07:00:24.974Z,48.77
2023-04-18T07:01:25.071Z,48.69
2023-04-18T07:02:25.179Z,48.68
2023-04-18T07:03:25.261Z,48.59
2023-04-18T07:04:25.403Z,48.54
2023-04-18T07:05:25.269Z,48.51
2023-04-18T07:06:25.319Z,48.46
2023-04-18T07:07:25.362Z,48.48
2023-04-18T07:08:25.443Z,48.37
2023-04-18T07:09:25.487Z,48.40
2023-04-18T07:10:26.628Z,48.22
2023-04-18T07:11:25.603Z,48.34
2023-04-18T07:12:25.623Z,48.27
2023-04-18T07:13:25.732Z,48.30
2023-04-18T07:14:25.730Z,48.32
2023-04-18T07:15:25.777Z,48.26
2023-04-18T07:16:25.884Z,48.31
2023-04-18T07:17:25.959Z,48.40
2023-04-18T07:18:36.719Z,48.26
2023-04-18T07:19:27.054Z,48.49
2023-04-18T07:20:26.060Z,48.57
2023-04-18T07:21:26.448Z,48.61
2023-04-18T07:22:25.958Z,48.60
2023-04-18T07:23:25.963Z,48.67
2023-04-18T07:24:25.963Z,48.76
2023-04-18T07:25:25.963Z,48.95
2023-04-18T07:26:26.602Z,48.91
2023-04-18T07:27:25.977Z,49.01
2023-04-18T07:28:26.948Z,49.04
2023-04-18T07:29:27.455Z,49.15
2023-04-18T07:30:26.097Z,49.24
2023-04-18T07:31:26.149Z,49.32
2023-04-18T07:32:26.235Z,49.32
2023-04-18T07:33:26.273Z,49.40
2023-04-18T07:34:26.308Z,49.56
2023-04-18T07:35:26.250Z,49.68
2023-04-18T07:36:26.302Z,49.72
2023-04-18T07:37:26.202Z,49.86
2023-04-18T07:38:26.208Z,49.97
2023-04-18T07:39:26.194Z,50.11
2023-04-18T07:40:26.229Z,50.24
2023-04-18T07:41:26.245Z,50.36
2023-04-18T07:42:26.271Z,50.44
2023-04-18T07:43:26.168Z,50.64
2023-04-18T07:44:26.161Z,50.63
2023-04-18T07:45:26.163Z,50.78
2023-04-18T07:46:26.210Z,50.94
2023-04-18T07:47:27.518Z,50.99
2023-04-18T07:48:26.174Z,51.24
2023-04-18T07:49:26.133Z,51.26
2023-04-18T07:50:26.141Z,51.41
2023-04-18T07:51:26.119Z,51.50
2023-04-18T07:52:26.122Z,51.67
2023-04-18T07:53:26.108Z,51.87
2023-04-18T07:54:26.101Z,51.93
2023-04-18T07:55:26.155Z,52.02
2023-04-18T07:56:26.097Z,52.16
2023-04-18T07:57:26.108Z,52.17
2023-04-18T07:58:26.217Z,52.45
2023-04-18T07:59:26.091Z,52.57
2023-04-18T08:00:26.296Z,52.63
2023-04-18T08:01:26.070Z,52.66
2023-04-18T08:02:26.246Z,52.77
2023-04-18T08:03:26.229Z,52.89
2023-04-18T08:05:26.136Z,53.06
2023-04-18T08:06:26.973Z,53.14
2023-04-18T08:07:26.001Z,53.30
2023-04-18T08:08:26.078Z,53.41
2023-04-18T08:09:26.001Z,53.77
2023-04-18T08:10:25.981Z,53.69
2023-04-18T08:11:25.986Z,53.90
2023-04-18T08:12:26.032Z,53.61
2023-04-18T08:13:25.951Z,53.68
2023-04-18T08:14:25.964Z,53.67
2023-04-18T08:15:25.901Z,53.79
2023-04-18T08:16:25.896Z,53.61
2023-04-18T08:17:25.899Z,53.55
2023-04-18T08:18:25.857Z,53.75
2023-04-18T08:19:25.849Z,51.29
2023-04-18T08:20:25.882Z,47.42
2023-04-18T08:21:25.827Z,45.40
2023-04-18T08:22:25.805Z,45.96
2023-04-18T08:23:25.801Z,46.00
2023-04-18T08:24:25.796Z,46.35
2023-04-18T08:25:25.802Z,46.42
2023-04-18T08:26:25.882Z,46.32
2023-04-18T08:27:25.769Z,46.01
2023-04-18T08:28:26.585Z,46.29
2023-04-18T08:29:25.739Z,46.59
2023-04-18T08:30:26.691Z,46.86
2023-04-18T08:31:25.770Z,47.13
2023-04-18T08:32:25.781Z,47.41
2023-04-18T08:33:25.694Z,47.69
2023-04-18T08:34:25.684Z,47.97
2023-04-18T08:35:25.673Z,48.06
2023-04-18T08:36:25.660Z,48.17
2023-04-18T08:37:25.683Z,48.42
2023-04-18T08:38:25.641Z,48.61
2023-04-18T08:39:26.057Z,48.80
2023-04-18T08:40:25.654Z,49.04
2023-04-18T08:41:25.604Z,49.28
2023-04-18T08:42:25.596Z,49.30
2023-04-18T08:43:25.575Z,49.49
2023-04-18T08:44:25.558Z,49.64
2023-04-18T08:45:25.555Z,49.79
2023-04-18T08:46:25.577Z,49.83
2023-04-18T08:47:25.551Z,50.20
2023-04-18T08:48:25.499Z,50.38
2023-04-18T08:49:25.562Z,50.61
2023-04-18T08:50:25.501Z,50.57
2023-04-18T08:51:25.457Z,50.60
2023-04-18T08:52:25.429Z,50.48
2023-04-18T08:53:25.414Z,50.49
2023-04-18T08:54:27.140Z,50.65
2023-04-18T08:55:25.389Z,50.84
2023-04-18T08:56:25.355Z,50.82
2023-04-18T08:57:25.339Z,50.97
2023-04-18T08:58:25.322Z,51.39
2023-04-18T08:59:25.315Z,51.51
2023-04-18T09:00:25.423Z,51.61
2023-04-18T09:01:25.376Z,51.66
2023-04-18T09:02:25.564Z,51.59
2023-04-18T09:03:25.361Z,51.60
2023-04-18T09:04:25.378Z,51.66
2023-04-18T09:05:25.309Z,51.74
2023-04-18T09:06:26.081Z,51.67
2023-04-18T09:07:25.326Z,51.76
2023-04-18T09:08:25.277Z,51.87
2023-04-18T09:09:25.276Z,52.02
2023-04-18T09:10:25.315Z,52.05
2023-04-18T09:11:25.268Z,52.26
2023-04-18T09:12:25.269Z,52.44
2023-04-18T09:13:25.261Z,52.47
2023-04-18T09:14:25.288Z,52.80
2023-04-18T09:15:25.315Z,52.97
2023-04-18T09:16:25.429Z,53.08
2023-04-18T09:17:25.395Z,51.82
2023-04-18T09:18:25.647Z,50.16
2023-04-18T09:19:25.401Z,44.94
2023-04-18T09:20:25.460Z,43.05
2023-04-18T09:21:25.540Z,41.36
2023-04-18T09:22:25.589Z,44.49
2023-04-18T09:23:25.628Z,45.00
2023-04-18T09:24:25.654Z,45.23
2023-04-18T09:25:26.491Z,45.40
2023-04-18T09:26:25.752Z,45.48
2023-04-18T09:27:25.804Z,45.67
2023-04-18T09:28:26.094Z,45.88
2023-04-18T09:29:25.926Z,46.04
2023-04-18T09:30:25.983Z,46.24
2023-04-18T09:31:26.121Z,46.48
2023-04-18T09:32:26.148Z,46.73
2023-04-18T09:33:26.162Z,46.96
2023-04-18T09:34:26.255Z,47.07
2023-04-18T09:35:26.268Z,47.30
2023-04-18T09:36:26.348Z,47.58
2023-04-18T09:37:26.368Z,47.65
2023-04-18T09:38:26.603Z,47.95
2023-04-18T09:39:26.470Z,48.09
2023-04-18T09:40:26.515Z,48.34
2023-04-18T09:41:26.536Z,48.46
2023-04-18T09:42:28.795Z,48.64
2023-04-18T09:43:26.630Z,48.79
2023-04-18T09:44:26.667Z,48.99
2023-04-18T09:45:26.710Z,49.16
2023-04-18T09:46:26.749Z,49.40
2023-04-18T09:47:26.801Z,49.58
2023-04-18T09:48:26.790Z,49.65
2023-04-18T09:49:26.839Z,49.78
2023-04-18T09:50:26.872Z,49.92
2023-04-18T09:51:26.912Z,50.08
2023-04-18T09:52:27.593Z,50.09
2023-04-18T09:53:26.978Z,50.39
2023-04-18T09:54:27.000Z,50.56
2023-04-18T09:55:27.031Z,50.64
2023-04-18T09:56:27.049Z,50.87
2023-04-18T09:57:28.093Z,51.18
2023-04-18T09:58:27.123Z,51.23
2023-04-18T09:59:27.153Z,51.40
2023-04-18T10:00:27.184Z,51.50
2023-04-18T10:01:28.192Z,51.60
2023-04-18T10:02:27.241Z,51.75
2023-04-18T10:03:27.219Z,51.85
2023-04-18T10:04:27.221Z,51.96
2023-04-18T10:05:27.214Z,52.13
2023-04-18T10:06:27.099Z,52.18
2023-04-18T10:07:27.096Z,52.23
2023-04-18T10:08:27.085Z,52.47
2023-04-18T10:09:27.067Z,52.49
2023-04-18T10:10:27.086Z,52.78
2023-04-18T10:11:27.048Z,52.98
2023-04-18T10:12:27.045Z,52.83
2023-04-18T10:13:27.012Z,52.94
2023-04-18T10:14:28.448Z,52.84
2023-04-18T10:15:27.166Z,51.07
2023-04-18T10:16:27.026Z,48.12
2023-04-18T10:17:28.749Z,46.47
2023-04-18T10:18:27.040Z,47.64
2023-04-18T10:19:28.009Z,46.47
2023-04-18T10:20:26.960Z,46.29
2023-04-18T10:21:27.594Z,45.94
2023-04-18T10:22:27.509Z,45.12
2023-04-18T10:23:28.071Z,45.53
2023-04-18T10:24:26.918Z,45.88
2023-04-18T10:25:26.909Z,45.93
2023-04-18T10:26:26.900Z,45.98
2023-04-18T10:27:26.883Z,45.57
2023-04-18T10:28:26.864Z,45.45
2023-04-18T10:29:26.850Z,45.12
2023-04-18T10:30:26.849Z,44.95
2023-04-18T10:31:27.026Z,44.80
2023-04-18T10:32:26.931Z,44.63
2023-04-18T10:33:31.129Z,44.45
2023-04-18T10:34:28.003Z,44.26
2023-04-18T10:35:26.979Z,44.20
2023-04-18T10:36:26.885Z,43.86
2023-04-18T10:37:26.870Z,43.77
2023-04-18T10:38:26.856Z,43.86
2023-04-18T10:39:26.892Z,43.99
2023-04-18T10:40:26.811Z,44.08
2023-04-18T10:41:26.825Z,44.52
2023-04-18T10:42:26.770Z,44.56
2023-04-18T10:43:26.828Z,44.74
2023-04-18T10:44:26.796Z,45.00
2023-04-18T10:45:26.821Z,45.26
2023-04-18T10:46:31.624Z,45.50
2023-04-18T10:47:27.913Z,45.66
2023-04-18T10:48:26.814Z,45.83
2023-04-18T10:49:28.416Z,46.03
2023-04-18T10:50:26.788Z,46.27
2023-04-18T10:51:26.775Z,46.33
2023-04-18T10:52:26.764Z,46.54
2023-04-18T10:53:26.763Z,46.77
2023-04-18T10:54:26.766Z,46.95
2023-04-18T10:55:27.110Z,47.20
2023-04-18T10:56:27.103Z,47.29
2023-04-18T10:57:26.695Z,47.41
2023-04-18T10:58:26.684Z,47.59
2023-04-18T10:59:26.692Z,47.73
2023-04-18T11:00:26.681Z,47.90
2023-04-18T11:01:27.481Z,48.13
2023-04-18T11:02:26.895Z,48.21
2023-04-18T11:03:26.925Z,48.22
2023-04-18T11:04:26.925Z,48.25
2023-04-18T11:05:26.856Z,48.12
2023-04-18T11:06:26.856Z,48.07
2023-04-18T11:07:28.405Z,47.99
2023-04-18T11:08:26.836Z,48.00
2023-04-18T11:09:26.828Z,47.96
2023-04-18T11:10:26.942Z,47.99
2023-04-18T11:11:26.783Z,48.00
2023-04-18T11:12:26.760Z,48.03
2023-04-18T11:13:26.732Z,48.01
2023-04-18T11:14:26.717Z,48.01
2023-04-18T11:15:28.015Z,48.05
2023-04-18T11:16:26.761Z,48.05
2023-04-18T11:17:27.634Z,48.07
2023-04-18T11:18:26.784Z,48.07
2023-04-18T11:19:26.800Z,48.07
2023-04-18T11:20:26.921Z,48.11
2023-04-18T11:21:28.074Z,48.12
2023-04-18T11:22:26.899Z,48.12
2023-04-18T11:23:26.997Z,48.16
2023-04-18T11:24:26.964Z,48.13
2023-04-18T11:25:27.048Z,48.14
2023-04-18T11:26:27.166Z,48.16
2023-04-18T11:27:27.069Z,48.19
2023-04-18T11:28:27.104Z,48.19
2023-04-18T11:29:27.616Z,48.17
2023-04-18T11:30:27.198Z,48.18
2023-04-18T11:31:27.244Z,48.18
2023-04-18T11:32:27.811Z,48.20
2023-04-18T11:33:27.311Z,48.21
2023-04-18T11:34:27.357Z,48.19
2023-04-18T11:35:27.391Z,48.17
2023-04-18T11:36:27.436Z,48.18
2023-04-18T11:37:27.493Z,48.22
2023-04-18T11:38:27.516Z,48.21
2023-04-18T11:39:27.576Z,48.17
2023-04-18T11:40:27.617Z,48.16
2023-04-18T11:41:27.666Z,48.14
2023-04-18T11:42:27.731Z,48.19
2023-04-18T11:43:27.745Z,48.21
2023-04-18T11:44:27.794Z,48.21
2023-04-18T11:45:27.833Z,48.19
2023-04-18T11:46:27.937Z,48.20
2023-04-18T11:47:27.945Z,48.17
2023-04-18T11:48:27.971Z,48.18
2023-04-18T11:49:28.088Z,48.15
2023-04-18T11:50:28.134Z,48.13
2023-04-18T11:51:28.104Z,48.13
2023-04-18T11:52:28.170Z,48.11
2023-04-18T11:53:28.203Z,48.10
2023-04-18T11:54:28.325Z,48.15
2023-04-18T11:55:28.313Z,48.12
2023-04-18T11:56:28.328Z,48.06
2023-04-18T11:57:28.371Z,48.06
2023-04-18T11:58:28.441Z,48.01
2023-04-18T11:59:28.444Z,48.02
2023-04-18T12:00:28.492Z,47.97
2023-04-18T12:01:28.527Z,47.90
2023-04-18T12:02:28.662Z,47.91
2023-04-18T12:03:28.710Z,47.88
2023-04-18T12:04:28.937Z,47.83
2023-04-18T12:05:28.927Z,47.81
2023-04-18T12:06:28.760Z,47.77
2023-04-18T12:07:29.130Z,47.75
2023-04-18T12:08:28.753Z,47.69
2023-04-18T12:09:28.775Z,47.65
2023-04-18T12:10:28.809Z,47.59
2023-04-18T12:11:28.821Z,47.57
2023-04-18T12:12:28.841Z,47.54
2023-04-18T12:13:28.866Z,47.50
2023-04-18T12:14:28.912Z,47.46
2023-04-18T12:15:28.871Z,47.41
2023-04-18T12:16:28.943Z,47.36
2023-04-18T12:17:28.920Z,47.35
2023-04-18T12:18:28.908Z,47.33
2023-04-18T12:19:28.946Z,47.28
2023-04-18T12:20:28.928Z,47.24
2023-04-18T12:21:28.923Z,47.23
2023-04-18T12:22:28.947Z,47.17
2023-04-18T12:23:28.924Z,47.11
2023-04-18T12:24:28.991Z,47.09
2023-04-18T12:25:28.931Z,47.09
2023-04-18T12:26:28.932Z,47.02
2023-04-18T12:27:28.996Z,47.08
2023-04-18T12:28:28.926Z,47.04
2023-04-18T12:29:28.919Z,46.99
2023-04-18T12:30:28.933Z,46.96
2023-04-18T12:31:28.991Z,46.95
2023-04-18T12:32:28.939Z,46.92
2023-04-18T12:33:28.915Z,46.91
2023-04-18T12:34:28.899Z,46.87
2023-04-18T12:35:28.932Z,46.86
2023-04-18T12:36:28.896Z,46.81
2023-04-18T12:37:28.889Z,46.81
2023-04-18T12:38:28.884Z,46.77
2023-04-18T12:39:28.872Z,46.75
2023-04-18T12:40:28.871Z,46.71
2023-04-18T12:41:28.873Z,46.68
2023-04-18T12:42:28.862Z,46.65
2023-04-18T12:43:28.861Z,46.66
2023-04-18T12:44:28.864Z,46.63
2023-04-18T12:45:28.845Z,46.56
2023-04-18T12:46:29.026Z,46.54
2023-04-18T12:47:28.861Z,46.50
2023-04-18T12:48:28.831Z,46.45
2023-04-18T12:49:28.849Z,46.44
2023-04-18T12:50:28.852Z,46.42
2023-04-18T12:51:28.807Z,46.37
2023-04-18T12:52:28.801Z,46.33
2023-04-18T12:53:28.794Z,46.32
2023-04-18T12:54:28.763Z,46.27